createdAt,value
2022-09-07T00:03:06.065Z,12.96
2022-09-07T00:08:09.250Z,11.28
2022-09-07T00:13:12.030Z,10.33
2022-09-07T00:18:14.934Z,10.81
2022-09-07T00:23:17.764Z,13.79
2022-09-07T00:28:20.635Z,13.29
2022-09-07T00:33:23.431Z,11.42
2022-09-07T00:38:26.735Z,10.38
2022-09-07T00:43:36.269Z,10.90
2022-09-07T00:49:02.879Z,13.88
2022-09-07T00:54:21.348Z,13.17
2022-09-07T00:59:31.780Z,11.23
2022-09-07T01:04:36.860Z,11.52
2022-09-07T01:09:40.832Z,14.03
2022-09-07T01:14:50.396Z,12.64
2022-09-07T01:20:30.436Z,10.81
2022-09-07T01:26:04.129Z,9.65
2022-09-07T01:31:54.810Z,10.70
2022-09-07T01:37:21.890Z,13.77
2022-09-07T01:42:56.850Z,12.22
2022-09-07T01:48:06.233Z,10.42
2022-09-07T01:53:26.043Z,10.86
2022-09-07T01:58:41.029Z,13.55
2022-09-07T02:03:54.376Z,12.01
2022-09-07T02:09:03.575Z,10.37
2022-09-07T02:14:14.747Z,10.76
2022-09-07T02:19:20.934Z,13.48
2022-09-07T02:24:39.172Z,12.20
2022-09-07T02:29:43.940Z,10.41
2022-09-07T02:34:46.716Z,10.74
2022-09-07T02:39:49.785Z,13.37
2022-09-07T02:44:52.877Z,12.03
2022-09-07T02:50:13.838Z,10.37
2022-09-07T02:55:34.483Z,9.38
2022-09-07T03:01:12.936Z,10.23
2022-09-07T03:06:25.824Z,13.29
2022-09-07T03:11:30.134Z,12.24
2022-09-07T03:16:33.571Z,10.40
2022-09-07T03:21:36.383Z,10.58
2022-09-07T03:26:43.791Z,13.04
2022-09-07T03:31:46.923Z,11.56
2022-09-07T03:36:49.648Z,10.02
2022-09-07T03:41:52.746Z,9.49
2022-09-07T03:46:55.554Z,12.17
2022-09-07T03:51:58.401Z,14.11
2022-09-07T03:57:01.145Z,12.40
2022-09-07T04:02:04.189Z,10.79
2022-09-07T04:07:07.184Z,9.77
2022-09-07T04:12:09.954Z,9.78
2022-09-07T04:17:13.228Z,12.85
2022-09-07T04:22:16.193Z,13.05
2022-09-07T04:27:18.933Z,11.04
2022-09-07T04:32:22.304Z,9.94
2022-09-07T04:37:25.137Z,10.64
2022-09-07T04:42:27.941Z,13.53
2022-09-07T04:47:31.242Z,12.38
2022-09-07T04:52:33.976Z,10.80
2022-09-07T04:57:37.262Z,10.08
2022-09-07T05:02:40.078Z,10.94
2022-09-07T05:07:43.228Z,13.88
2022-09-07T05:12:45.958Z,12.88
2022-09-07T05:17:50.278Z,11.46
2022-09-07T05:22:59.739Z,10.77
2022-09-07T05:28:04.141Z,10.35
2022-09-07T05:33:08.281Z,11.47
2022-09-07T05:38:11.104Z,14.54
2022-09-07T05:43:13.940Z,13.64
2022-09-07T05:48:16.733Z,12.50
2022-09-07T05:53:20.775Z,12.41
2022-09-07T05:58:23.654Z,15.05
2022-09-07T06:03:26.597Z,18.97
2022-09-07T06:08:30.274Z,22.17
2022-09-07T06:13:33.805Z,24.61
2022-09-07T06:18:39.550Z,26.11
2022-09-07T06:23:43.625Z,27.51
2022-09-07T06:28:50.126Z,28.84
2022-09-07T06:33:55.040Z,28.54
2022-09-07T06:39:01.570Z,26.06
2022-09-07T06:44:04.401Z,23.60
2022-09-07T06:49:07.287Z,21.66
2022-09-07T06:59:33.010Z,18.98
2022-09-07T07:04:40.484Z,18.28
2022-09-07T07:09:44.893Z,17.85
2022-09-07T07:14:47.931Z,17.57
2022-09-07T07:19:50.793Z,19.00
2022-09-07T07:24:57.222Z,22.90
2022-09-07T07:30:00.289Z,26.53
2022-09-07T07:35:03.589Z,29.53
2022-09-07T07:40:18.529Z,31.79
2022-09-07T07:50:57.825Z,34.58
2022-09-07T07:56:02.445Z,35.27
2022-09-07T08:01:09.190Z,36.00
2022-09-07T08:06:15.190Z,36.33
2022-09-07T08:11:20.371Z,36.28
2022-09-07T08:16:23.359Z,35.77
2022-09-07T08:21:26.456Z,35.52
2022-09-07T08:26:30.838Z,35.57
2022-09-07T08:31:33.683Z,35.66
2022-09-07T08:36:36.518Z,35.39
2022-09-07T08:41:57.591Z,34.76
2022-09-07T08:47:04.503Z,34.28
2022-09-07T08:52:45.975Z,33.54
2022-09-07T08:57:57.947Z,33.14
2022-09-07T09:08:50.700Z,33.19
2022-09-07T09:14:19.028Z,32.59
2022-09-07T09:19:35.732Z,29.99
2022-09-07T09:24:47.156Z,27.72
2022-09-07T09:29:53.355Z,26.06
2022-09-07T09:35:13.403Z,24.56
2022-09-07T09:40:26.278Z,23.42
2022-09-07T09:46:12.252Z,22.72
2022-09-07T09:56:22.971Z,21.70
2022-09-07T10:01:35.137Z,21.31
2022-09-07T10:06:38.689Z,20.99
2022-09-07T10:12:06.275Z,20.81
2022-09-07T10:17:25.597Z,20.68
2022-09-07T10:22:36.524Z,20.49
2022-09-07T10:27:40.926Z,20.40
2022-09-07T10:33:17.179Z,20.30
2022-09-07T10:38:26.216Z,20.16
2022-09-07T10:43:48.485Z,20.00
2022-09-07T10:49:06.460Z,19.85
2022-09-07T10:54:35.317Z,19.70
2022-09-07T11:00:12.500Z,19.57
2022-09-07T11:05:36.059Z,19.40
2022-09-07T11:10:52.764Z,19.21
2022-09-07T11:16:00.627Z,19.10
2022-09-07T11:21:12.237Z,18.99
2022-09-07T11:26:55.765Z,18.96
2022-09-07T11:32:15.537Z,19.00
2022-09-07T11:37:37.563Z,19.02
2022-09-07T11:42:48.226Z,19.07
2022-09-07T11:47:57.963Z,19.05
2022-09-07T11:53:28.739Z,19.04
2022-09-07T11:58:56.382Z,19.10
2022-09-07T12:04:15.464Z,19.18
2022-09-07T12:09:50.982Z,19.27
2022-09-07T12:15:13.198Z,19.28
2022-09-07T12:20:18.776Z,19.29
2022-09-07T12:25:22.038Z,19.29
2022-09-07T12:30:24.828Z,19.29
2022-09-07T12:35:28.304Z,19.31
2022-09-07T12:40:34.075Z,19.35
2022-09-07T12:45:36.755Z,19.39
2022-09-07T12:50:59.114Z,19.43
2022-09-07T12:56:16.408Z,19.47
2022-09-07T13:01:40.663Z,19.47
2022-09-07T13:07:05.309Z,19.46
2022-09-07T13:17:56.077Z,19.50
2022-09-07T13:23:25.636Z,19.53
2022-09-07T13:28:52.291Z,19.51
2022-09-07T13:33:57.154Z,19.49
2022-09-07T13:39:00.250Z,19.46
2022-09-07T13:44:06.774Z,19.46
2022-09-07T13:49:27.506Z,19.46
2022-09-07T13:54:56.621Z,19.41
2022-09-07T13:59:59.611Z,19.37
2022-09-07T14:05:04.945Z,19.43
2022-09-07T14:10:20.053Z,19.45
2022-09-07T14:15:25.773Z,19.45
2022-09-07T14:20:29.078Z,19.43
2022-09-07T14:26:15.920Z,19.44
2022-09-07T14:30:55.077Z,19.42
2022-09-07T14:35:59.359Z,19.39
2022-09-07T14:41:06.999Z,19.39
2022-09-07T14:46:18.180Z,19.45
2022-09-07T14:51:32.734Z,19.47
2022-09-07T14:56:40.974Z,19.43
2022-09-07T15:01:46.911Z,19.34
2022-09-07T15:07:05.565Z,19.21
2022-09-07T15:12:29.740Z,19.07
2022-09-07T15:17:42.947Z,18.91
2022-09-07T15:22:46.251Z,18.71
2022-09-07T15:27:49.180Z,18.61
2022-09-07T15:32:52.563Z,18.59
2022-09-07T15:38:04.285Z,18.57
2022-09-07T15:43:20.029Z,18.60
2022-09-07T15:48:25.248Z,18.68
2022-09-07T15:58:55.494Z,18.83
2022-09-07T16:04:00.440Z,19.02
2022-09-07T16:09:06.220Z,18.89
2022-09-07T16:14:12.659Z,18.70
2022-09-07T16:19:20.105Z,18.47
2022-09-07T16:24:23.257Z,18.24
2022-09-07T16:29:26.138Z,18.02
2022-09-07T16:34:29.743Z,17.82
2022-09-07T16:39:33.017Z,17.62
2022-09-07T16:44:35.833Z,17.42
2022-09-07T16:49:39.216Z,17.21
2022-09-07T16:54:42.245Z,17.01
2022-09-07T16:59:45.310Z,16.80
2022-09-07T17:04:48.172Z,16.61
2022-09-07T17:09:50.982Z,16.44
2022-09-07T17:14:54.106Z,16.27
2022-09-07T17:19:58.319Z,16.11
2022-09-07T17:25:01.048Z,15.95
2022-09-07T17:30:06.626Z,15.81
2022-09-07T17:35:10.427Z,15.65
2022-09-07T17:40:13.255Z,15.50
2022-09-07T17:45:16.197Z,15.34
2022-09-07T17:50:18.985Z,15.18
2022-09-07T17:55:22.460Z,15.04
2022-09-07T18:00:25.820Z,14.91
2022-09-07T18:05:28.661Z,14.75
2022-09-07T18:15:58.834Z,14.45
2022-09-07T18:21:03.391Z,14.36
2022-09-07T18:26:10.460Z,14.26
2022-09-07T18:31:13.330Z,14.18
2022-09-07T18:36:16.089Z,14.09
2022-09-07T18:41:20.389Z,13.99
2022-09-07T18:46:25.557Z,13.88
2022-09-07T18:51:30.909Z,13.75
2022-09-07T18:56:33.837Z,13.64
2022-09-07T19:01:38.160Z,13.54
2022-09-07T19:06:42.488Z,13.44
2022-09-07T19:11:45.298Z,13.33
2022-09-07T19:16:48.146Z,13.24
2022-09-07T19:21:53.529Z,13.14
2022-09-07T19:27:00.171Z,13.05
2022-09-07T19:32:08.004Z,12.95
2022-09-07T19:37:12.629Z,12.85
2022-09-07T19:42:15.467Z,12.75
2022-09-07T19:47:18.877Z,12.66
2022-09-07T19:52:23.491Z,12.55
2022-09-07T19:57:28.866Z,12.44
2022-09-07T20:02:31.781Z,12.32
2022-09-07T20:07:34.749Z,12.18
2022-09-07T20:12:37.518Z,12.35
2022-09-07T20:17:40.691Z,15.30
2022-09-07T20:22:43.441Z,15.98
2022-09-07T20:27:46.219Z,14.37
2022-09-07T20:32:49.370Z,13.44
2022-09-07T20:37:52.213Z,12.85
2022-09-07T20:42:55.193Z,12.40
2022-09-07T20:48:00.067Z,12.07
2022-09-07T20:53:04.389Z,11.81
2022-09-07T20:58:07.365Z,11.61
2022-09-07T21:03:10.684Z,13.43
2022-09-07T21:08:14.380Z,14.85
2022-09-07T21:13:17.691Z,13.36
2022-09-07T21:18:20.438Z,12.52
2022-09-07T21:23:24.303Z,12.01
2022-09-07T21:28:28.131Z,11.66
2022-09-07T21:33:35.321Z,11.41
2022-09-07T21:38:39.595Z,11.23
2022-09-07T21:43:42.450Z,11.08
2022-09-07T21:48:46.621Z,10.95
2022-09-07T21:53:58.230Z,10.85
2022-09-07T21:59:02.466Z,11.90
2022-09-07T22:04:07.117Z,15.20
2022-09-07T22:09:10.016Z,14.85
2022-09-07T22:14:13.764Z,13.24
2022-09-07T22:19:16.781Z,12.36
2022-09-07T22:24:19.524Z,11.81
2022-09-07T22:29:22.349Z,11.41
2022-09-07T22:34:25.131Z,11.10
2022-09-07T22:39:29.335Z,10.87
2022-09-07T22:44:32.860Z,10.69
2022-09-07T22:49:36.204Z,10.55
2022-09-07T22:54:38.951Z,10.43
2022-09-07T22:59:41.680Z,10.34
2022-09-07T23:04:45.118Z,10.26
2022-09-07T23:09:48.473Z,11.44
2022-09-07T23:14:51.227Z,14.76
2022-09-07T23:19:53.945Z,14.10
2022-09-07T23:24:56.695Z,12.57
2022-09-07T23:29:59.478Z,11.77
2022-09-07T23:35:03.523Z,11.26
2022-09-07T23:40:08.697Z,12.08
2022-09-07T23:45:11.477Z,14.56
2022-09-07T23:50:14.601Z,13.10
2022-09-07T23:55:17.488Z,11.95
